Time;durP1;ratioP1;P1;durP2;ratioP2;P2;SDS_P1;SDS_P2;PMS_P1;PMS_P2;Temp;Humidity;BMP_temperature;BMP_pressure;BME280_temperature;BME280_humidity;BME280_pressure;Samples;Min_cycle;Max_cycle;Signal;HPM_P1;HPM_P2
2021/11/26 00:01:43;;;;;;;9.70;2.60;;;;;;;5.06;84.61;100436.16;5011095;28;20038;-80
2021/11/26 00:04:11;;;;;;;15.10;5.28;;;;;;;5.09;84.50;100430.03;5016145;28;20045;-80
2021/11/26 00:06:38;;;;;;;11.68;2.97;;;;;;;5.09;85.02;100408.91;5011493;28;20059;-80
2021/11/26 00:09:05;;;;;;;13.40;4.10;;;;;;;5.11;84.98;100398.41;5009731;28;20041;-83
2021/11/26 00:11:31;;;;;;;8.85;2.90;;;;;;;5.13;84.96;100389.88;5007901;28;20033;-82
2021/11/26 00:14:20;;;;;;;8.35;2.45;;;;;;;5.16;85.92;100384.59;5020319;28;20722;-83
2021/11/26 00:16:53;;;;;;;11.38;3.03;;;;;;;5.18;85.60;100363.13;5013531;28;20038;-79
2021/11/26 00:19:20;;;;;;;10.13;3.35;;;;;;;5.22;85.56;100364.06;5015099;28;20056;-79
2021/11/26 00:21:47;;;;;;;15.40;3.42;;;;;;;5.25;85.59;100352.47;5017371;28;20140;-79
2021/11/26 00:24:13;;;;;;;16.65;3.42;;;;;;;5.28;85.93;100340.84;5016393;28;20230;-79
2021/11/26 00:26:41;;;;;;;11.05;2.65;;;;;;;5.30;85.89;100343.25;5014332;28;20033;-79
2021/11/26 00:29:07;;;;;;;10.25;3.30;;;;;;;5.32;86.16;100325.34;5017398;28;20107;-78
2021/11/26 00:31:34;;;;;;;11.05;2.72;;;;;;;5.32;86.40;100321.81;5020073;28;20071;-79
2021/11/26 00:34:01;;;;;;;8.27;2.70;;;;;;;5.35;86.25;100307.44;5025659;28;20048;-79
2021/11/26 00:36:28;;;;;;;15.30;2.58;;;;;;;5.36;86.48;100312.63;5020802;28;20481;-79
2021/11/26 00:38:56;;;;;;;9.20;2.58;;;;;;;5.38;86.58;100304.03;5016024;28;20045;-79
2021/11/26 00:41:23;;;;;;;12.70;3.13;;;;;;;5.38;86.42;100293.88;5013536;28;20616;-78
2021/11/26 00:43:51;;;;;;;11.18;3.55;;;;;;;5.39;86.70;100292.75;5013123;28;20039;-79
2021/11/26 00:46:19;;;;;;;5.80;2.38;;;;;;;5.40;87.06;100280.63;5019089;28;20117;-79
2021/11/26 00:48:46;;;;;;;10.52;3.97;;;;;;;5.42;87.16;100270.16;5024896;28;20037;-79
2021/11/26 00:51:13;;;;;;;9.82;3.88;;;;;;;5.42;87.51;100259.19;5017163;28;20120;-78
2021/11/26 00:53:41;;;;;;;12.82;3.95;;;;;;;5.46;87.31;100257.38;5014456;28;20099;-79
2021/11/26 00:56:08;;;;;;;9.43;3.83;;;;;;;5.49;87.87;100243.03;5013871;28;20037;-78
2021/11/26 00:58:34;;;;;;;11.25;3.13;;;;;;;5.53;87.68;100243.97;5015175;28;20396;-79
2021/11/26 01:01:03;;;;;;;11.82;3.10;;;;;;;5.57;88.20;100229.59;5018146;28;20040;-78
2021/11/26 01:03:30;;;;;;;18.90;4.40;;;;;;;5.62;88.17;100223.94;5019894;28;20045;-79
2021/11/26 01:05:57;;;;;;;17.25;2.85;;;;;;;5.64;88.95;100211.50;5019376;28;20458;-78
2021/11/26 01:08:24;;;;;;;12.52;3.85;;;;;;;5.69;88.62;100199.56;5014406;28;20065;-79
2021/11/26 01:10:52;;;;;;;9.23;3.10;;;;;;;5.74;88.61;100188.41;5014990;28;20076;-79
2021/11/26 01:13:19;;;;;;;14.02;2.50;;;;;;;5.76;89.38;100180.63;5021661;28;20473;-78
2021/11/26 01:15:47;;;;;;;10.95;2.33;;;;;;;5.78;89.29;100167.38;5013018;28;20134;-79
2021/11/26 01:18:15;;;;;;;11.35;2.88;;;;;;;5.81;88.83;100153.00;5017326;28;20029;-79
2021/11/26 01:20:42;;;;;;;10.57;2.75;;;;;;;5.82;89.43;100146.38;5015740;28;20045;-79
2021/11/26 01:23:09;;;;;;;11.43;2.28;;;;;;;5.85;89.57;100137.50;5021998;28;20033;-79
2021/11/26 01:25:37;;;;;;;9.35;2.17;;;;;;;5.87;89.36;100125.06;5018696;28;20433;-78
2021/11/26 01:28:04;;;;;;;11.75;3.05;;;;;;;5.91;89.49;100122.44;5015445;28;20524;-79
2021/11/26 01:33:00;;;;;;;7.50;2.42;;;;;;;5.99;89.77;100102.38;5018505;28;20041;-79
2021/11/26 01:35:29;;;;;;;4.97;1.98;;;;;;;6.01;89.65;100086.38;5019359;28;20035;-79
2021/11/26 01:37:56;;;;;;;11.38;2.67;;;;;;;6.03;89.93;100093.16;5018740;28;20052;-78
2021/11/26 01:40:23;;;;;;;8.40;2.00;;;;;;;6.05;89.92;100068.06;5013358;28;20420;-78
2021/11/26 01:42:52;;;;;;;8.23;1.70;;;;;;;6.08;90.10;100070.16;5017807;28;20519;-78
2021/11/26 01:45:19;;;;;;;4.10;1.35;;;;;;;6.10;90.41;100060.44;5012250;28;20037;-79
2021/11/26 01:47:46;;;;;;;7.70;2.08;;;;;;;6.13;90.13;100057.03;5015847;28;20046;-78
2021/11/26 01:50:15;;;;;;;10.70;1.80;;;;;;;6.17;89.91;100061.88;5018341;28;20462;-78
2021/11/26 01:52:42;;;;;;;7.75;1.42;;;;;;;6.18;90.18;100050.53;5007502;28;20069;-78
2021/11/26 01:55:09;;;;;;;5.57;1.83;;;;;;;6.19;89.89;100038.44;5012965;28;20072;-78
2021/11/26 01:57:38;;;;;;;7.05;2.38;;;;;;;6.21;90.77;100036.13;5020096;28;20046;-79
2021/11/26 02:00:10;;;;;;;6.70;2.05;;;;;;;6.21;91.07;100019.66;5018240;28;20405;-79
2021/11/26 02:02:37;;;;;;;3.95;1.67;;;;;;;6.24;91.13;100016.25;5015475;28;20065;-79
2021/11/26 02:05:05;;;;;;;6.35;1.25;;;;;;;6.25;91.16;99986.81;5011189;28;20052;-79
2021/11/26 02:07:31;;;;;;;6.47;2.38;;;;;;;6.29;90.82;99980.31;5015790;28;20044;-78
2021/11/26 02:09:58;;;;;;;11.95;1.15;;;;;;;6.29;90.68;99969.31;5010224;28;20048;-79
2021/11/26 02:12:25;;;;;;;6.38;2.20;;;;;;;6.31;91.06;99967.03;5016999;28;20037;-79
2021/11/26 02:14:52;;;;;;;3.03;1.10;;;;;;;6.34;90.36;99960.84;5013912;28;20386;-79
2021/11/26 02:17:19;;;;;;;7.60;1.60;;;;;;;6.35;90.70;99953.41;5018726;28;20389;-79
2021/11/26 02:19:46;;;;;;;5.53;3.25;;;;;;;6.37;90.77;99940.94;5030522;28;20140;-78
2021/11/26 02:22:12;;;;;;;6.60;1.17;;;;;;;6.38;90.71;99937.03;5018314;28;20129;-78
2021/11/26 02:24:39;;;;;;;7.82;0.98;;;;;;;6.40;90.52;99942.22;5019341;28;20041;-79
2021/11/26 02:27:06;;;;;;;4.95;1.70;;;;;;;6.42;90.76;99929.75;5011533;28;20060;-79
2021/11/26 02:29:33;;;;;;;3.22;1.23;;;;;;;6.45;90.54;99929.06;5022312;28;20041;-79
2021/11/26 02:32:00;;;;;;;7.28;1.67;;;;;;;6.46;90.49;99922.41;5013888;28;20036;-79
2021/11/26 02:34:26;;;;;;;10.85;2.65;;;;;;;6.48;90.43;99911.91;5015712;28;20069;-78
2021/11/26 02:36:53;;;;;;;3.97;1.17;;;;;;;6.50;90.50;99895.84;5009132;28;20077;-79
2021/11/26 02:39:20;;;;;;;7.68;1.60;;;;;;;6.50;89.89;99904.09;5016546;28;20029;-79
2021/11/26 02:41:49;;;;;;;10.05;1.60;;;;;;;6.53;90.23;99884.19;5012423;28;20050;-78
2021/11/26 02:44:16;;;;;;;10.15;1.48;;;;;;;6.56;89.95;99874.44;5012283;28;20042;-79
2021/11/26 02:46:43;;;;;;;9.32;2.22;;;;;;;6.58;89.70;99861.16;5015509;28;20037;-78
2021/11/26 02:49:09;;;;;;;3.45;0.98;;;;;;;6.60;89.86;99848.69;4997982;28;20038;-79
2021/11/26 02:51:36;;;;;;;10.25;1.17;;;;;;;6.62;89.71;99851.88;5016564;28;20045;-79
2021/11/26 02:54:03;;;;;;;4.97;1.05;;;;;;;6.65;89.70;99850.38;5019490;28;20033;-79
2021/11/26 02:56:30;;;;;;;6.55;1.27;;;;;;;6.67;89.27;99829.66;5020829;28;20406;-78
2021/11/26 02:58:56;;;;;;;5.28;1.45;;;;;;;6.68;89.17;99834.03;5019617;28;20485;-79
2021/11/26 03:01:23;;;;;;;12.35;1.55;;;;;;;6.70;89.43;99820.72;5014708;28;20042;-79
2021/11/26 03:03:50;;;;;;;6.88;1.20;;;;;;;6.71;89.48;99805.84;5036242;28;20140;-79
2021/11/26 03:06:17;;;;;;;8.05;1.42;;;;;;;6.71;89.20;99805.84;5023680;28;20037;-79
2021/11/26 03:08:44;;;;;;;3.95;1.30;;;;;;;6.73;89.11;99820.03;5016002;28;20048;-79
2021/11/26 03:11:11;;;;;;;9.52;1.70;;;;;;;6.77;89.30;99802.84;5022036;28;20046;-79
2021/11/26 03:13:38;;;;;;;7.78;1.50;;;;;;;6.77;89.22;99791.84;5022334;28;20045;-78
2021/11/26 03:16:04;;;;;;;6.78;1.08;;;;;;;6.78;89.08;99791.50;5020343;28;20047;-79
2021/11/26 03:18:31;;;;;;;7.88;1.17;;;;;;;6.78;89.23;99777.75;5015527;28;20046;-79
2021/11/26 03:20:58;;;;;;;9.32;1.27;;;;;;;6.80;88.84;99752.66;5018067;28;20051;-78
2021/11/26 03:23:26;;;;;;;11.00;2.95;;;;;;;6.81;89.14;99743.25;5022091;28;20516;-79
2021/11/26 03:25:53;;;;;;;9.38;2.78;;;;;;;6.82;88.78;99750.38;5019464;28;20079;-79
2021/11/26 03:28:20;;;;;;;6.82;1.40;;;;;;;6.82;89.23;99736.59;5009539;28;20554;-79
2021/11/26 03:30:48;;;;;;;4.65;1.35;;;;;;;6.83;89.22;99736.25;5013702;28;20041;-79
2021/11/26 03:33:16;;;;;;;6.35;1.35;;;;;;;6.81;89.73;99715.75;5022315;28;20114;-79
2021/11/26 03:35:43;;;;;;;6.20;1.98;;;;;;;6.80;89.62;99708.66;5021160;28;20049;-79
2021/11/26 03:38:10;;;;;;;3.85;1.25;;;;;;;6.80;89.64;99705.91;5019540;28;20120;-79
2021/11/26 03:40:37;;;;;;;5.70;1.10;;;;;;;6.79;89.96;99694.09;5020330;28;20141;-79
2021/11/26 03:43:03;;;;;;;4.70;1.27;;;;;;;6.79;89.73;99696.03;5017739;28;20132;-78
2021/11/26 03:45:30;;;;;;;5.18;1.25;;;;;;;6.78;90.39;99672.44;5018557;28;20029;-78
2021/11/26 03:47:58;;;;;;;6.95;1.20;;;;;;;6.78;90.61;99667.72;5017944;28;20449;-78
2021/11/26 03:50:28;;;;;;;10.57;1.50;;;;;;;6.79;90.32;99641.00;5015091;28;20038;-78
2021/11/26 03:52:55;;;;;;;6.28;1.30;;;;;;;6.79;90.70;99657.53;5018396;28;20037;-78
2021/11/26 03:55:24;;;;;;;4.90;1.25;;;;;;;6.79;90.74;99641.81;5011910;28;20048;-78
2021/11/26 03:57:52;;;;;;;6.00;1.13;;;;;;;6.80;90.75;99637.94;5016125;28;20537;-79
2021/11/26 04:00:19;;;;;;;4.72;1.33;;;;;;;6.81;90.64;99627.72;5009732;28;20045;-79
2021/11/26 04:02:46;;;;;;;7.28;1.50;;;;;;;6.80;91.22;99615.94;5019592;28;20379;-78
2021/11/26 04:05:14;;;;;;;7.70;1.52;;;;;;;6.80;91.12;99609.63;5019000;28;20120;-78
2021/11/26 04:07:41;;;;;;;11.18;1.90;;;;;;;6.80;91.67;99590.38;5018191;28;20454;-79
2021/11/26 04:10:10;;;;;;;6.20;1.00;;;;;;;6.80;91.61;99604.94;5018557;28;20125;-78
2021/11/26 04:12:38;;;;;;;9.43;1.52;;;;;;;6.81;91.31;99597.44;5022018;28;20088;-78
2021/11/26 04:15:06;;;;;;;8.18;1.52;;;;;;;6.79;92.08;99602.50;5018824;28;20078;-78
2021/11/26 04:17:35;;;;;;;6.90;2.00;;;;;;;6.80;92.29;99582.13;5008563;28;20371;-78
2021/11/26 04:20:04;;;;;;;12.13;1.85;;;;;;;6.80;92.47;99577.41;5019899;28;20511;-78
2021/11/26 04:22:31;;;;;;;8.10;1.30;;;;;;;6.80;92.84;99565.59;5020372;28;20065;-79
2021/11/26 04:24:58;;;;;;;9.77;1.35;;;;;;;6.80;92.90;99557.34;5021027;28;20025;-79
2021/11/26 04:27:24;;;;;;;6.47;1.35;;;;;;;6.81;92.76;99543.25;5014587;28;20040;-79
2021/11/26 04:29:51;;;;;;;8.60;1.45;;;;;;;6.82;92.68;99530.28;5017059;28;20470;-78
2021/11/26 04:32:19;;;;;;;5.10;0.60;;;;;;;6.82;92.68;99533.03;5014053;28;20049;-78
2021/11/26 04:34:45;;;;;;;7.10;1.05;;;;;;;6.82;92.86;99536.59;5020284;28;20041;-79
2021/11/26 04:37:12;;;;;;;6.28;1.02;;;;;;;6.83;93.57;99531.91;5016767;28;20117;-79
2021/11/26 04:39:39;;;;;;;7.57;1.50;;;;;;;6.86;93.17;99528.47;5021957;28;20049;-79
2021/11/26 04:42:06;;;;;;;2.17;1.17;;;;;;;6.90;92.91;99527.41;5017775;28;20508;-79
2021/11/26 04:44:33;;;;;;;8.60;0.93;;;;;;;6.92;92.96;99519.59;5020445;28;20065;-78
2021/11/26 04:47:00;;;;;;;5.68;1.65;;;;;;;6.94;93.10;99510.97;5015626;28;20390;-79
2021/11/26 04:49:26;;;;;;;5.30;1.77;;;;;;;6.95;92.76;99510.63;5021361;28;20116;-79
2021/11/26 04:51:53;;;;;;;7.43;1.70;;;;;;;6.98;93.05;99520.13;5018781;28;20101;-79
2021/11/26 04:54:20;;;;;;;3.45;0.80;;;;;;;6.99;93.37;99508.00;5011984;28;20478;-78
2021/11/26 04:56:47;;;;;;;4.55;1.17;;;;;;;7.02;93.13;99510.00;5016649;28;20685;-79
2021/11/26 04:59:13;;;;;;;7.82;1.42;;;;;;;7.03;92.98;99495.94;5017460;28;20037;-79
2021/11/26 05:01:40;;;;;;;7.00;1.35;;;;;;;7.04;93.50;99513.25;5010259;28;20045;-79
2021/11/26 05:04:07;;;;;;;5.60;1.80;;;;;;;7.06;93.47;99508.19;5023166;28;20033;-79
2021/11/26 05:06:36;;;;;;;6.90;1.45;;;;;;;7.08;93.57;99511.38;5016009;28;20042;-79
2021/11/26 05:09:05;;;;;;;7.68;0.85;;;;;;;7.10;93.06;99498.06;5016687;28;20103;-78
2021/11/26 05:11:33;;;;;;;5.70;0.80;;;;;;;7.13;93.37;99511.13;5010082;28;20046;-79
2021/11/26 05:14:02;;;;;;;3.15;1.60;;;;;;;7.14;93.43;99483.25;5018882;28;20068;-79
2021/11/26 05:16:30;;;;;;;3.45;1.05;;;;;;;7.17;92.88;99468.78;5008637;28;20046;-79
2021/11/26 05:18:57;;;;;;;2.67;0.88;;;;;;;7.19;92.72;99484.94;5036825;28;20128;-78
2021/11/26 05:21:24;;;;;;;4.05;0.77;;;;;;;7.21;92.51;99474.38;5020719;28;20040;-79
2021/11/26 05:23:51;;;;;;;8.55;0.80;;;;;;;7.24;92.21;99476.41;5022949;28;20138;-79
2021/11/26 05:26:18;;;;;;;7.82;1.20;;;;;;;7.24;91.82;99471.72;5018672;28;20052;-79
2021/11/26 05:28:45;;;;;;;3.50;0.95;;;;;;;7.27;91.51;99481.22;5017970;28;20045;-79
2021/11/26 05:31:12;;;;;;;1.77;0.45;;;;;;;7.27;90.68;99476.53;5013919;28;20060;-79
2021/11/26 05:33:38;;;;;;;2.42;0.52;;;;;;;7.27;90.13;99478.47;5016167;28;20049;-79
2021/11/26 05:36:05;;;;;;;4.28;0.63;;;;;;;7.26;89.39;99461.16;5017874;28;20052;-79
2021/11/26 05:38:32;;;;;;;1.13;0.60;;;;;;;7.28;89.45;99461.59;5016871;28;20108;-78
2021/11/26 05:40:58;;;;;;;3.50;0.73;;;;;;;7.31;88.63;99460.88;5012549;28;20029;-78
2021/11/26 05:43:25;;;;;;;3.28;0.63;;;;;;;7.34;88.69;99462.94;5019561;28;20127;-79
2021/11/26 05:45:52;;;;;;;5.13;1.05;;;;;;;7.34;88.55;99470.38;5021538;28;20080;-79
2021/11/26 05:48:19;;;;;;;2.42;0.50;;;;;;;7.34;88.21;99460.19;5022821;28;20033;-79
2021/11/26 05:50:46;;;;;;;1.33;0.47;;;;;;;7.32;87.73;99468.00;5003485;28;20052;-79
2021/11/26 05:53:13;;;;;;;2.25;0.47;;;;;;;7.30;87.41;99467.56;5017917;28;20458;-79
2021/11/26 05:55:40;;;;;;;3.25;1.15;;;;;;;7.26;87.09;99471.34;5020323;28;20049;-79
2021/11/26 05:58:07;;;;;;;1.85;0.52;;;;;;;7.25;86.94;99472.53;5022156;28;20393;-78
2021/11/26 06:00:35;;;;;;;1.35;0.32;;;;;;;7.23;86.98;99469.31;5018655;28;20512;-79
2021/11/26 06:03:02;;;;;;;4.07;0.70;;;;;;;7.21;87.06;99460.59;5038332;28;20041;-79
2021/11/26 06:05:29;;;;;;;1.85;0.40;;;;;;;7.19;86.81;99457.41;5019095;28;20037;-78
2021/11/26 06:07:56;;;;;;;1.80;0.70;;;;;;;7.22;87.01;99462.22;5017246;28;20048;-78
2021/11/26 06:10:23;;;;;;;3.85;0.47;;;;;;;7.26;87.10;99454.84;5019723;28;20393;-79
2021/11/26 06:12:52;;;;;;;4.65;0.63;;;;;;;7.27;87.08;99459.19;5021441;28;20405;-79
2021/11/26 06:15:21;;;;;;;5.78;0.52;;;;;;;7.26;87.25;99441.06;5021979;28;20034;-78
2021/11/26 06:17:47;;;;;;;2.55;0.45;;;;;;;7.25;87.28;99443.03;5002851;28;20476;-78
2021/11/26 06:20:15;;;;;;;4.72;0.70;;;;;;;7.24;87.43;99440.63;5020901;28;20038;-79
2021/11/26 06:22:42;;;;;;;3.85;0.95;;;;;;;7.26;87.24;99432.81;5014991;28;20055;-79
2021/11/26 06:25:11;;;;;;;6.70;1.15;;;;;;;7.29;87.02;99434.88;5021894;28;20048;-78
2021/11/26 06:27:38;;;;;;;5.20;0.93;;;;;;;7.30;86.73;99447.47;5013225;28;20045;-78
2021/11/26 06:30:06;;;;;;;3.17;1.00;;;;;;;7.30;86.47;99450.22;5015862;28;20047;-79
2021/11/26 06:32:33;;;;;;;4.25;0.85;;;;;;;7.29;85.99;99462.38;5017741;28;20037;-79
2021/11/26 06:34:59;;;;;;;3.63;0.50;;;;;;;7.28;85.68;99447.81;5025239;28;20034;-79
2021/11/26 06:37:28;;;;;;;3.03;0.85;;;;;;;7.32;85.22;99450.69;5026518;28;20038;-78
2021/11/26 06:39:55;;;;;;;5.60;0.80;;;;;;;7.32;84.46;99440.47;5019544;28;20132;-79
2021/11/26 06:42:22;;;;;;;4.65;0.85;;;;;;;7.33;83.84;99435.75;5019202;28;20045;-78
2021/11/26 06:44:50;;;;;;;3.30;0.80;;;;;;;7.35;84.01;99444.47;5020163;28;20370;-78
2021/11/26 06:47:16;;;;;;;7.80;1.55;;;;;;;7.34;84.14;99446.41;5020991;28;20052;-78
2021/11/26 06:49:43;;;;;;;4.78;0.90;;;;;;;7.33;83.90;99431.03;5026131;28;20037;-78
2021/11/26 06:52:10;;;;;;;3.30;0.70;;;;;;;7.33;83.62;99430.25;5021331;28;20498;-78
2021/11/26 06:54:36;;;;;;;2.90;0.95;;;;;;;7.28;83.35;99439.56;5022395;28;20056;-79
2021/11/26 06:57:03;;;;;;;9.13;0.73;;;;;;;7.25;83.24;99447.75;5027052;28;20046;-78
2021/11/26 06:59:31;;;;;;;4.68;0.80;;;;;;;7.24;83.26;99440.63;5016914;28;20044;-78
2021/11/26 07:01:58;;;;;;;4.40;1.15;;;;;;;7.21;83.09;99435.84;5014895;28;20060;-79
2021/11/26 07:04:25;;;;;;;7.38;1.35;;;;;;;7.19;82.59;99438.16;5023568;28;20091;-78
2021/11/26 07:06:51;;;;;;;4.35;1.00;;;;;;;7.18;82.79;99433.78;5022259;28;20091;-78
2021/11/26 07:09:18;;;;;;;8.65;1.55;;;;;;;7.19;82.38;99446.41;5020743;28;20045;-79
2021/11/26 07:11:46;;;;;;;8.95;1.30;;;;;;;7.19;82.52;99433.44;5026288;28;20120;-79
2021/11/26 07:14:33;;;;;;;11.52;3.13;;;;;;;7.21;82.50;99455.09;5022785;28;20037;-79
2021/11/26 07:17:00;;;;;;;8.25;1.50;;;;;;;7.21;82.39;99439.41;5020380;28;20046;-79
2021/11/26 07:19:27;;;;;;;6.18;1.33;;;;;;;7.19;81.94;99438.97;5021196;28;20061;-78
2021/11/26 07:21:54;;;;;;;7.22;1.50;;;;;;;7.15;81.92;99462.00;5005087;28;20451;-78
2021/11/26 07:24:21;;;;;;;7.57;1.63;;;;;;;7.05;81.43;99451.53;5024173;28;20124;-79
2021/11/26 07:26:48;;;;;;;5.50;1.20;;;;;;;6.98;81.71;99449.41;5017370;28;20041;-79
2021/11/26 07:29:14;;;;;;;7.10;1.15;;;;;;;6.92;81.74;99453.56;5017060;28;20042;-78
2021/11/26 07:31:41;;;;;;;6.65;1.00;;;;;;;6.85;81.79;99449.81;5018501;28;20042;-79
2021/11/26 07:34:08;;;;;;;10.65;2.92;;;;;;;6.81;82.04;99451.66;5023585;28;20034;-78
2021/11/26 07:36:34;;;;;;;13.93;1.33;;;;;;;6.77;82.08;99461.78;5015742;28;20400;-78
2021/11/26 07:39:02;;;;;;;6.28;1.50;;;;;;;6.73;82.07;99448.72;5019662;28;20056;-78
2021/11/26 07:41:29;;;;;;;6.20;1.40;;;;;;;6.73;81.99;99454.22;5013269;28;20053;-79
2021/11/26 07:43:55;;;;;;;6.13;1.85;;;;;;;6.72;81.75;99460.88;5025310;28;20041;-79
2021/11/26 07:46:22;;;;;;;11.85;2.00;;;;;;;6.73;81.40;99443.22;5020894;28;20037;-78
2021/11/26 07:48:49;;;;;;;10.50;1.27;;;;;;;6.73;81.55;99448.72;5013856;28;20046;-79
2021/11/26 07:51:16;;;;;;;9.20;3.10;;;;;;;6.70;80.94;99445.88;5020238;28;20046;-78
2021/11/26 07:53:43;;;;;;;18.52;2.47;;;;;;;6.68;81.09;99448.97;5022553;28;20038;-78
2021/11/26 07:56:09;;;;;;;7.30;1.80;;;;;;;6.67;80.90;99446.59;5023580;28;20554;-78
2021/11/26 07:58:36;;;;;;;5.40;1.33;;;;;;;6.65;80.93;99454.38;5023113;28;20083;-79
2021/11/26 08:01:03;;;;;;;11.32;1.67;;;;;;;6.61;81.14;99454.28;5018049;28;20045;-78
2021/11/26 08:03:30;;;;;;;16.20;2.17;;;;;;;6.59;81.13;99440.06;5013493;28;20077;-78
2021/11/26 08:06:05;;;;;;;13.23;2.47;;;;;;;6.56;80.86;99446.28;5003107;28;20041;-79
2021/11/26 08:08:32;;;;;;;8.98;1.80;;;;;;;6.57;81.14;99466.31;5018408;28;20076;-79
2021/11/26 08:11:00;;;;;;;22.27;3.53;;;;;;;6.56;81.05;99451.78;5022810;28;20076;-78
2021/11/26 08:13:27;;;;;;;11.82;3.35;;;;;;;6.56;80.59;99438.03;5023903;28;20037;-78
2021/11/26 08:15:53;;;;;;;13.55;3.03;;;;;;;6.53;80.67;99444.25;5015678;28;20040;-79
2021/11/26 08:18:20;;;;;;;17.65;3.13;;;;;;;6.52;80.57;99448.13;5003143;28;20140;-78
2021/11/26 08:20:47;;;;;;;10.35;2.72;;;;;;;6.50;80.27;99450.44;5024328;28;20037;-78
2021/11/26 08:23:13;;;;;;;12.55;2.40;;;;;;;6.49;80.06;99454.31;5003687;28;20037;-78
2021/11/26 08:25:40;;;;;;;8.10;2.40;;;;;;;6.47;79.86;99459.38;5037276;28;20053;-78
2021/11/26 08:28:07;;;;;;;15.85;2.67;;;;;;;6.46;79.95;99446.00;5018500;28;20072;-78
2021/11/26 08:30:34;;;;;;;19.20;4.65;;;;;;;6.42;79.78;99445.88;5019318;28;20053;-78
2021/11/26 08:33:01;;;;;;;10.20;3.05;;;;;;;6.42;79.68;99445.88;5020018;28;20128;-79
2021/11/26 08:35:33;;;;;;;;;;;;;;;6.40;77.99;99447.38;5018192;28;20143;-79
2021/11/26 08:38:00;;;;;;;15.27;2.38;;;;;;;6.39;78.85;99454.81;5016869;28;19980;-79
2021/11/26 08:40:27;;;;;;;15.32;4.53;;;;;;;6.35;78.31;99436.63;5015746;28;20182;-79
2021/11/26 08:42:54;;;;;;;12.48;2.80;;;;;;;6.35;78.53;99451.19;5018667;28;20049;-78
2021/11/26 08:45:25;;;;;;;11.88;3.00;;;;;;;6.35;78.17;99451.19;5014512;28;20077;-78
2021/11/26 08:47:52;;;;;;;19.50;2.63;;;;;;;6.36;78.07;99440.97;5021399;28;20124;-78
2021/11/26 08:50:20;;;;;;;15.30;3.45;;;;;;;6.39;77.43;99440.28;5020784;28;20046;-79
2021/11/26 08:52:47;;;;;;;18.65;2.83;;;;;;;6.40;77.58;99445.44;5014613;28;20037;-79
2021/11/26 08:55:19;;;;;;;15.65;3.08;;;;;;;6.40;77.07;99442.69;5024582;28;20037;-78
2021/11/26 08:57:53;;;;;;;18.25;3.35;;;;;;;6.44;77.14;99446.31;5011823;28;20034;-79
2021/11/26 09:00:24;;;;;;;25.10;3.83;;;;;;;6.48;77.39;99444.50;5014633;28;20366;-78
2021/11/26 09:02:52;;;;;;;22.60;3.28;;;;;;;6.50;77.38;99447.69;4999425;28;20405;-81
2021/11/26 09:05:19;;;;;;;18.00;3.85;;;;;;;6.48;76.71;99450.00;4997899;28;20042;-79
2021/11/26 09:07:47;;;;;;;18.15;3.45;;;;;;;6.49;76.97;99446.06;4993374;28;21395;-78
2021/11/26 09:10:17;;;;;;;14.60;3.35;;;;;;;6.51;76.88;99448.50;4962796;28;20049;-78
2021/11/26 09:12:44;;;;;;;15.95;2.83;;;;;;;6.53;77.30;99452.50;4962540;28;22124;-78
2021/11/26 09:15:13;;;;;;;13.60;4.57;;;;;;;6.54;76.80;99464.28;4969884;28;20042;-79
2021/11/26 09:17:40;;;;;;;12.25;2.80;;;;;;;6.55;77.06;99474.94;4962123;28;20133;-79
2021/11/26 09:20:08;;;;;;;12.00;2.88;;;;;;;6.55;76.44;99466.69;4960382;28;21006;-79
2021/11/26 09:22:35;;;;;;;16.27;3.67;;;;;;;6.56;76.52;99457.28;4960339;28;20045;-78
2021/11/26 09:25:04;;;;;;;20.65;3.67;;;;;;;6.56;76.25;99453.75;4969001;28;20129;-77
2021/11/26 09:27:30;;;;;;;8.82;2.58;;;;;;;6.55;75.77;99452.94;4951884;28;20061;-78
2021/11/26 09:29:57;;;;;;;13.80;2.45;;;;;;;6.58;76.25;99462.44;4962838;28;20049;-79
2021/11/26 09:32:24;;;;;;;10.45;2.45;;;;;;;6.58;75.49;99456.94;4960077;28;20140;-82
2021/11/26 09:34:51;;;;;;;16.50;2.20;;;;;;;6.62;75.58;99455.88;4962087;28;20426;-82
2021/11/26 09:37:18;;;;;;;19.95;2.65;;;;;;;6.66;75.23;99456.78;4961805;28;20053;-82
2021/11/26 09:39:45;;;;;;;21.88;6.43;;;;;;;6.65;75.32;99455.19;4967749;28;20068;-78
2021/11/26 09:42:12;;;;;;;12.75;2.10;;;;;;;6.64;75.25;99442.59;4958466;28;20157;-78
2021/11/26 09:44:42;;;;;;;17.58;4.43;;;;;;;6.68;75.35;99443.47;4956187;28;20390;-78
2021/11/26 09:47:09;;;;;;;19.80;5.75;;;;;;;6.74;75.68;99433.84;4964395;28;20176;-78
2021/11/26 09:49:37;;;;;;;14.32;4.50;;;;;;;6.77;75.51;99437.03;4960500;28;20097;-78
2021/11/26 09:52:04;;;;;;;10.77;2.80;;;;;;;6.75;75.24;99415.38;4961205;28;20057;-78
2021/11/26 09:54:43;;;;;;;12.48;2.85;;;;;;;6.73;74.55;99423.97;4962708;28;20561;-78
2021/11/26 09:57:11;;;;;;;16.67;2.63;;;;;;;6.72;75.07;99414.09;4960267;28;20049;-78
2021/11/26 09:59:40;;;;;;;19.52;3.92;;;;;;;6.77;75.58;99424.06;4960695;28;20073;-78
2021/11/26 10:02:18;;;;;;;16.92;3.63;;;;;;;6.72;75.15;99427.84;4958625;28;20395;-78
2021/11/26 10:05:00;;;;;;;11.93;2.80;;;;;;;6.68;75.54;99431.69;4965027;28;20041;-78
2021/11/26 10:07:28;;;;;;;13.75;3.40;;;;;;;6.63;75.64;99427.22;4971565;28;20116;-78
2021/11/26 10:10:09;;;;;;;14.93;2.47;;;;;;;6.62;74.85;99428.38;4964423;28;20057;-78
2021/11/26 10:12:36;;;;;;;16.77;3.95;;;;;;;6.63;75.84;99434.69;4967251;28;20050;-78
2021/11/26 10:15:05;;;;;;;10.23;2.35;;;;;;;6.65;75.86;99430.44;5017691;28;20045;-79
2021/11/26 10:17:32;;;;;;;11.65;2.35;;;;;;;6.64;75.74;99430.78;5012589;28;20648;-78
2021/11/26 10:20:03;;;;;;;9.98;2.28;;;;;;;6.62;75.88;99431.13;5020445;28;20107;-78
2021/11/26 10:22:35;;;;;;;13.18;3.53;;;;;;;6.61;76.24;99439.75;5018383;28;20033;-78
2021/11/26 10:25:11;;;;;;;9.23;2.00;;;;;;;6.55;75.90;99433.69;5011265;28;20046;-78
2021/11/26 10:27:41;;;;;;;17.08;2.63;;;;;;;6.54;76.26;99426.56;5015688;28;20038;-82
2021/11/26 10:30:22;;;;;;;13.93;2.70;;;;;;;6.50;76.36;99436.69;4996272;28;20392;-82
2021/11/26 10:33:00;;;;;;;12.30;2.42;;;;;;;6.42;76.08;99429.38;5014811;28;20041;-82
2021/11/26 10:35:37;;;;;;;8.52;1.52;;;;;;;6.43;75.80;99424.69;5015288;28;20061;-82
2021/11/26 10:38:10;;;;;;;9.32;3.55;;;;;;;6.45;76.35;99449.88;5016114;28;20187;-81
2021/11/26 10:40:40;;;;;;;9.63;2.05;;;;;;;6.41;75.78;99433.28;5018361;28;20049;-82
2021/11/26 10:43:19;;;;;;;18.58;6.97;;;;;;;6.44;75.80;99435.31;4999139;28;20394;-82
2021/11/26 10:59:32;;;;;;;9.63;2.15;;;;;;;6.73;74.42;99440.47;5011473;28;20056;-82
2021/11/26 11:01:59;;;;;;;7.15;2.08;;;;;;;6.77;74.91;99453.53;5002618;28;20052;-82
2021/11/26 11:04:28;;;;;;;12.13;2.33;;;;;;;6.79;74.87;99445.72;5009259;28;20464;-81
2021/11/26 11:07:01;;;;;;;9.23;2.03;;;;;;;6.80;74.73;99422.56;5019562;28;20458;-82
2021/11/26 11:09:46;;;;;;;5.63;1.30;;;;;;;6.81;74.64;99441.47;5008358;28;20049;-82
2021/11/26 11:12:14;;;;;;;6.57;1.60;;;;;;;6.81;75.29;99435.16;5012587;28;20038;-82
2021/11/26 11:14:54;;;;;;;9.68;1.80;;;;;;;6.78;74.69;99435.88;5024651;28;20037;-81
2021/11/26 11:17:24;;;;;;;5.53;1.42;;;;;;;6.73;74.73;99432.22;5022156;28;20038;-82
2021/11/26 11:19:55;;;;;;;6.22;1.65;;;;;;;6.74;74.97;99425.59;5018096;28;20133;-82
2021/11/26 11:22:21;;;;;;;5.28;1.88;;;;;;;6.74;74.79;99435.78;5018772;28;20041;-79
2021/11/26 11:24:48;;;;;;;12.00;2.92;;;;;;;6.75;74.82;99421.66;5020593;28;20056;-79
2021/11/26 11:27:15;;;;;;;9.05;2.33;;;;;;;6.71;74.51;99431.78;5017364;28;20133;-79
2021/11/26 11:29:42;;;;;;;4.70;1.20;;;;;;;6.67;74.06;99408.09;5013800;28;20054;-78
2021/11/26 11:32:10;;;;;;;11.90;1.48;;;;;;;6.69;74.33;99414.84;5020521;28;20678;-79
2021/11/26 11:34:39;;;;;;;7.55;1.42;;;;;;;6.73;74.33;99421.22;5021907;28;20436;-79
2021/11/26 11:37:10;;;;;;;4.45;1.13;;;;;;;6.69;73.67;99422.28;5017424;28;20037;-79
2021/11/26 11:39:52;;;;;;;3.65;1.05;;;;;;;6.66;74.26;99418.28;5017883;28;20048;-79
2021/11/26 11:42:26;;;;;;;8.27;2.40;;;;;;;6.69;74.34;99430.53;5022509;28;20049;-79
2021/11/26 11:45:10;;;;;;;5.82;1.85;;;;;;;6.75;74.19;99421.66;5021936;28;20056;-79
2021/11/26 11:47:49;;;;;;;8.13;2.10;;;;;;;6.81;73.82;99407.66;5018217;28;20076;-79
2021/11/26 11:50:18;;;;;;;13.55;2.20;;;;;;;6.87;74.23;99412.56;5022970;28;20045;-79
2021/11/26 11:52:47;;;;;;;8.95;2.88;;;;;;;6.98;74.16;99404.56;5022712;28;20117;-79
2021/11/26 11:55:35;;;;;;;7.50;2.60;;;;;;;7.05;74.04;99394.53;5022123;28;20551;-79
2021/11/26 11:58:11;;;;;;;9.60;2.75;;;;;;;7.06;74.08;99409.13;5022299;28;20038;-79